Mayo, Canada
Current Conditions -  °F | °C
As of 11:00 AM on Monday 20 Oct 2014 (Local Time) from CYMA Reporting Station
Moderate Fog Moderate Fog  
Wind Chill: -3°   Ceiling: 2000
Heat Index:   Visibility: 20mi
Dew Point: -1°   Wind: 10mph
Humidity: 87%   Direction: 10°N
Pressure: 29.17"   Gusts: NA
Location:  63.6°N, 135.88°W
Report Text: CYMA 201800Z 01009KT 20SM VCFG FEW005 SCT012 OVC020 01/M01 A2917 RMK ST1SF2SC5 CLIMAT 1.8/0.0/TRCM/1.0MM SLP902
Loading
Personal Weather Stations






























Interactive Weather Map
Tropical Storm Tracking
New forecast layout! Learn more

10-Day Weather Forecast

Advertisements
Track Severe Weather on mobile